sensor_id;sensor_type;location;lat;lon;timestamp;P1;durP1;ratioP1;P2;durP2;ratioP2
20890;SDS011;10605;52.968;8.844;2023-03-14T00:02:25;12.98;;;4.93;;
20890;SDS011;10605;52.968;8.844;2023-03-14T00:04:53;9.98;;;5.00;;
20890;SDS011;10605;52.968;8.844;2023-03-14T00:07:21;8.40;;;4.82;;
20890;SDS011;10605;52.968;8.844;2023-03-14T00:09:49;7.93;;;4.15;;
20890;SDS011;10605;52.968;8.844;2023-03-14T00:12:15;10.57;;;4.97;;
20890;SDS011;10605;52.968;8.844;2023-03-14T00:14:40;10.20;;;3.90;;
20890;SDS011;10605;52.968;8.844;2023-03-14T00:17:07;9.25;;;4.28;;
20890;SDS011;10605;52.968;8.844;2023-03-14T00:19:33;5.85;;;3.95;;
20890;SDS011;10605;52.968;8.844;2023-03-14T00:21:59;10.07;;;4.22;;
20890;SDS011;10605;52.968;8.844;2023-03-14T00:24:24;9.73;;;4.18;;
20890;SDS011;10605;52.968;8.844;2023-03-14T00:26:50;8.50;;;4.35;;
20890;SDS011;10605;52.968;8.844;2023-03-14T00:29:15;9.85;;;4.47;;
20890;SDS011;10605;52.968;8.844;2023-03-14T00:31:41;10.90;;;5.00;;
20890;SDS011;10605;52.968;8.844;2023-03-14T00:34:07;8.05;;;4.32;;
20890;SDS011;10605;52.968;8.844;2023-03-14T00:36:32;12.02;;;5.72;;
20890;SDS011;10605;52.968;8.844;2023-03-14T00:38:58;6.18;;;5.28;;
20890;SDS011;10605;52.968;8.844;2023-03-14T00:41:24;9.57;;;5.03;;
20890;SDS011;10605;52.968;8.844;2023-03-14T00:43:50;8.57;;;5.90;;
20890;SDS011;10605;52.968;8.844;2023-03-14T00:46:16;15.13;;;5.88;;
20890;SDS011;10605;52.968;8.844;2023-03-14T00:48:42;9.90;;;6.82;;
20890;SDS011;10605;52.968;8.844;2023-03-14T00:51:10;8.65;;;6.40;;
20890;SDS011;10605;52.968;8.844;2023-03-14T00:53:38;9.35;;;5.88;;
20890;SDS011;10605;52.968;8.844;2023-03-14T00:56:06;9.18;;;5.90;;
20890;SDS011;10605;52.968;8.844;2023-03-14T00:58:36;9.20;;;6.32;;
20890;SDS011;10605;52.968;8.844;2023-03-14T01:01:09;8.77;;;5.88;;
20890;SDS011;10605;52.968;8.844;2023-03-14T01:03:37;8.93;;;5.25;;
20890;SDS011;10605;52.968;8.844;2023-03-14T01:06:06;10.35;;;6.50;;
20890;SDS011;10605;52.968;8.844;2023-03-14T01:08:35;12.25;;;6.05;;
20890;SDS011;10605;52.968;8.844;2023-03-14T01:11:04;11.63;;;6.03;;
20890;SDS011;10605;52.968;8.844;2023-03-14T01:13:31;9.35;;;5.82;;
20890;SDS011;10605;52.968;8.844;2023-03-14T01:16:00;16.27;;;6.20;;
20890;SDS011;10605;52.968;8.844;2023-03-14T01:18:27;11.93;;;5.88;;
20890;SDS011;10605;52.968;8.844;2023-03-14T01:20:53;12.88;;;6.25;;
20890;SDS011;10605;52.968;8.844;2023-03-14T01:23:19;10.95;;;5.88;;
20890;SDS011;10605;52.968;8.844;2023-03-14T01:25:44;14.90;;;5.85;;
20890;SDS011;10605;52.968;8.844;2023-03-14T01:28:10;11.32;;;5.57;;
20890;SDS011;10605;52.968;8.844;2023-03-14T01:30:35;11.38;;;5.68;;
20890;SDS011;10605;52.968;8.844;2023-03-14T01:33:01;14.20;;;5.15;;
20890;SDS011;10605;52.968;8.844;2023-03-14T01:35:27;10.75;;;5.05;;
20890;SDS011;10605;52.968;8.844;2023-03-14T01:37:52;9.85;;;5.03;;
20890;SDS011;10605;52.968;8.844;2023-03-14T01:40:18;16.77;;;5.43;;
20890;SDS011;10605;52.968;8.844;2023-03-14T01:42:45;11.43;;;5.20;;
20890;SDS011;10605;52.968;8.844;2023-03-14T01:51:11;11.57;;;5.38;;
20890;SDS011;10605;52.968;8.844;2023-03-14T01:53:54;10.95;;;5.68;;
20890;SDS011;10605;52.968;8.844;2023-03-14T01:56:33;13.38;;;5.47;;
20890;SDS011;10605;52.968;8.844;2023-03-14T01:59:00;10.55;;;5.57;;
20890;SDS011;10605;52.968;8.844;2023-03-14T02:01:31;10.43;;;5.72;;
20890;SDS011;10605;52.968;8.844;2023-03-14T02:03:59;10.95;;;5.18;;
20890;SDS011;10605;52.968;8.844;2023-03-14T02:06:28;6.97;;;5.28;;
20890;SDS011;10605;52.968;8.844;2023-03-14T02:09:00;13.07;;;5.82;;
20890;SDS011;10605;52.968;8.844;2023-03-14T02:11:26;10.05;;;5.45;;
20890;SDS011;10605;52.968;8.844;2023-03-14T02:13:55;13.93;;;6.13;;
20890;SDS011;10605;52.968;8.844;2023-03-14T02:16:22;13.27;;;5.97;;
20890;SDS011;10605;52.968;8.844;2023-03-14T02:18:49;12.65;;;5.65;;
20890;SDS011;10605;52.968;8.844;2023-03-14T02:27:06;13.00;;;5.50;;
20890;SDS011;10605;52.968;8.844;2023-03-14T02:29:35;16.70;;;5.85;;
20890;SDS011;10605;52.968;8.844;2023-03-14T02:32:06;11.00;;;4.82;;
20890;SDS011;10605;52.968;8.844;2023-03-14T02:34:32;9.35;;;4.55;;
20890;SDS011;10605;52.968;8.844;2023-03-14T02:36:59;9.30;;;5.32;;
20890;SDS011;10605;52.968;8.844;2023-03-14T02:39:27;10.38;;;4.70;;
20890;SDS011;10605;52.968;8.844;2023-03-14T02:42:00;11.43;;;4.72;;
20890;SDS011;10605;52.968;8.844;2023-03-14T02:44:26;13.30;;;4.40;;
20890;SDS011;10605;52.968;8.844;2023-03-14T02:46:52;12.05;;;4.38;;
20890;SDS011;10605;52.968;8.844;2023-03-14T02:49:17;10.15;;;3.90;;
20890;SDS011;10605;52.968;8.844;2023-03-14T02:51:43;7.60;;;3.85;;
20890;SDS011;10605;52.968;8.844;2023-03-14T02:54:11;8.38;;;4.03;;
20890;SDS011;10605;52.968;8.844;2023-03-14T02:56:36;9.93;;;3.65;;
20890;SDS011;10605;52.968;8.844;2023-03-14T02:59:03;9.43;;;3.95;;
20890;SDS011;10605;52.968;8.844;2023-03-14T03:01:29;13.40;;;3.25;;
20890;SDS011;10605;52.968;8.844;2023-03-14T03:03:55;8.98;;;3.15;;
20890;SDS011;10605;52.968;8.844;2023-03-14T03:06:20;4.63;;;3.13;;
20890;SDS011;10605;52.968;8.844;2023-03-14T03:08:46;8.98;;;3.65;;
20890;SDS011;10605;52.968;8.844;2023-03-14T03:11:11;7.00;;;3.25;;
20890;SDS011;10605;52.968;8.844;2023-03-14T03:13:37;8.07;;;3.25;;
20890;SDS011;10605;52.968;8.844;2023-03-14T03:16:03;8.55;;;3.78;;
20890;SDS011;10605;52.968;8.844;2023-03-14T03:18:29;11.35;;;3.83;;
20890;SDS011;10605;52.968;8.844;2023-03-14T03:20:55;13.05;;;3.83;;
20890;SDS011;10605;52.968;8.844;2023-03-14T03:23:24;10.68;;;3.72;;
20890;SDS011;10605;52.968;8.844;2023-03-14T03:25:50;11.10;;;3.75;;
20890;SDS011;10605;52.968;8.844;2023-03-14T03:28:16;9.52;;;4.28;;
20890;SDS011;10605;52.968;8.844;2023-03-14T03:30:42;10.52;;;4.25;;
20890;SDS011;10605;52.968;8.844;2023-03-14T03:33:08;6.45;;;3.58;;
20890;SDS011;10605;52.968;8.844;2023-03-14T03:35:34;9.27;;;4.32;;
20890;SDS011;10605;52.968;8.844;2023-03-14T03:38:06;9.88;;;3.90;;
20890;SDS011;10605;52.968;8.844;2023-03-14T03:40:32;10.88;;;4.60;;
20890;SDS011;10605;52.968;8.844;2023-03-14T03:42:57;6.47;;;4.05;;
20890;SDS011;10605;52.968;8.844;2023-03-14T03:45:23;13.15;;;4.63;;
20890;SDS011;10605;52.968;8.844;2023-03-14T03:47:48;6.35;;;4.32;;
20890;SDS011;10605;52.968;8.844;2023-03-14T03:50:14;9.70;;;5.00;;
20890;SDS011;10605;52.968;8.844;2023-03-14T03:52:40;11.40;;;4.68;;
20890;SDS011;10605;52.968;8.844;2023-03-14T03:55:05;6.80;;;4.90;;
20890;SDS011;10605;52.968;8.844;2023-03-14T03:57:31;7.63;;;5.20;;
20890;SDS011;10605;52.968;8.844;2023-03-14T03:59:57;12.23;;;5.60;;
20890;SDS011;10605;52.968;8.844;2023-03-14T04:02:22;8.95;;;6.45;;
20890;SDS011;10605;52.968;8.844;2023-03-14T04:04:48;11.27;;;5.97;;
20890;SDS011;10605;52.968;8.844;2023-03-14T04:07:14;13.75;;;6.63;;
20890;SDS011;10605;52.968;8.844;2023-03-14T04:09:39;10.82;;;6.00;;
20890;SDS011;10605;52.968;8.844;2023-03-14T04:12:05;10.98;;;6.35;;
20890;SDS011;10605;52.968;8.844;2023-03-14T04:14:31;12.65;;;6.80;;
20890;SDS011;10605;52.968;8.844;2023-03-14T04:16:57;10.40;;;5.93;;
20890;SDS011;10605;52.968;8.844;2023-03-14T04:19:22;11.20;;;6.68;;
20890;SDS011;10605;52.968;8.844;2023-03-14T04:21:48;9.60;;;7.22;;
20890;SDS011;10605;52.968;8.844;2023-03-14T04:24:13;14.90;;;7.03;;
20890;SDS011;10605;52.968;8.844;2023-03-14T04:26:39;17.75;;;6.80;;
20890;SDS011;10605;52.968;8.844;2023-03-14T04:29:05;10.27;;;6.65;;
20890;SDS011;10605;52.968;8.844;2023-03-14T04:31:30;15.20;;;6.20;;
20890;SDS011;10605;52.968;8.844;2023-03-14T04:33:56;11.05;;;5.72;;
20890;SDS011;10605;52.968;8.844;2023-03-14T04:36:22;12.48;;;5.50;;
20890;SDS011;10605;52.968;8.844;2023-03-14T04:38:47;6.75;;;5.25;;
20890;SDS011;10605;52.968;8.844;2023-03-14T04:41:13;9.32;;;5.25;;
20890;SDS011;10605;52.968;8.844;2023-03-14T04:43:38;11.18;;;6.05;;
20890;SDS011;10605;52.968;8.844;2023-03-14T04:46:04;11.40;;;5.22;;
20890;SDS011;10605;52.968;8.844;2023-03-14T04:48:30;10.23;;;5.10;;
20890;SDS011;10605;52.968;8.844;2023-03-14T04:50:56;10.07;;;4.63;;
20890;SDS011;10605;52.968;8.844;2023-03-14T04:53:21;6.03;;;4.53;;
20890;SDS011;10605;52.968;8.844;2023-03-14T04:55:48;13.77;;;6.45;;
20890;SDS011;10605;52.968;8.844;2023-03-14T04:58:15;14.63;;;6.38;;
20890;SDS011;10605;52.968;8.844;2023-03-14T05:00:41;12.75;;;5.07;;
20890;SDS011;10605;52.968;8.844;2023-03-14T05:03:06;6.93;;;4.25;;
20890;SDS011;10605;52.968;8.844;2023-03-14T05:05:32;8.25;;;4.53;;
20890;SDS011;10605;52.968;8.844;2023-03-14T05:07:57;8.73;;;4.35;;
20890;SDS011;10605;52.968;8.844;2023-03-14T05:10:23;8.93;;;3.90;;
20890;SDS011;10605;52.968;8.844;2023-03-14T05:12:49;9.80;;;3.70;;
20890;SDS011;10605;52.968;8.844;2023-03-14T05:15:14;11.10;;;4.60;;
20890;SDS011;10605;52.968;8.844;2023-03-14T05:17:40;12.20;;;4.43;;
20890;SDS011;10605;52.968;8.844;2023-03-14T05:20:06;11.93;;;4.30;;
20890;SDS011;10605;52.968;8.844;2023-03-14T05:22:38;8.85;;;3.72;;
20890;SDS011;10605;52.968;8.844;2023-03-14T05:25:04;12.05;;;4.05;;
20890;SDS011;10605;52.968;8.844;2023-03-14T05:27:31;9.50;;;3.38;;
20890;SDS011;10605;52.968;8.844;2023-03-14T05:29:56;10.35;;;4.43;;
20890;SDS011;10605;52.968;8.844;2023-03-14T05:32:22;7.57;;;4.35;;
20890;SDS011;10605;52.968;8.844;2023-03-14T05:34:48;9.45;;;3.55;;
20890;SDS011;10605;52.968;8.844;2023-03-14T05:37:13;10.82;;;3.42;;
20890;SDS011;10605;52.968;8.844;2023-03-14T05:39:39;9.25;;;3.30;;
20890;SDS011;10605;52.968;8.844;2023-03-14T05:42:05;8.27;;;3.25;;
20890;SDS011;10605;52.968;8.844;2023-03-14T05:44:30;7.15;;;2.75;;
20890;SDS011;10605;52.968;8.844;2023-03-14T05:46:56;6.60;;;2.67;;
20890;SDS011;10605;52.968;8.844;2023-03-14T05:49:21;5.35;;;1.98;;
20890;SDS011;10605;52.968;8.844;2023-03-14T05:51:47;2.75;;;1.80;;
20890;SDS011;10605;52.968;8.844;2023-03-14T05:54:13;3.53;;;1.40;;
20890;SDS011;10605;52.968;8.844;2023-03-14T05:56:38;3.35;;;1.63;;
20890;SDS011;10605;52.968;8.844;2023-03-14T05:59:04;1.90;;;1.05;;
20890;SDS011;10605;52.968;8.844;2023-03-14T06:01:31;5.60;;;1.40;;
20890;SDS011;10605;52.968;8.844;2023-03-14T06:03:56;3.25;;;1.27;;
20890;SDS011;10605;52.968;8.844;2023-03-14T06:06:22;2.65;;;1.10;;
20890;SDS011;10605;52.968;8.844;2023-03-14T06:08:48;7.95;;;1.27;;
20890;SDS011;10605;52.968;8.844;2023-03-14T06:11:13;7.45;;;1.30;;
20890;SDS011;10605;52.968;8.844;2023-03-14T06:13:39;3.47;;;1.23;;
20890;SDS011;10605;52.968;8.844;2023-03-14T06:16:05;3.58;;;1.30;;
20890;SDS011;10605;52.968;8.844;2023-03-14T06:18:31;2.03;;;1.25;;
20890;SDS011;10605;52.968;8.844;2023-03-14T06:20:57;6.80;;;1.40;;
20890;SDS011;10605;52.968;8.844;2023-03-14T06:23:22;1.02;;;0.90;;
20890;SDS011;10605;52.968;8.844;2023-03-14T06:25:49;2.33;;;1.33;;
20890;SDS011;10605;52.968;8.844;2023-03-14T06:28:15;4.47;;;1.70;;
20890;SDS011;10605;52.968;8.844;2023-03-14T06:30:41;3.25;;;1.33;;
20890;SDS011;10605;52.968;8.844;2023-03-14T06:33:06;3.15;;;1.27;;
20890;SDS011;10605;52.968;8.844;2023-03-14T06:35:32;2.85;;;1.17;;
20890;SDS011;10605;52.968;8.844;2023-03-14T06:37:58;1.92;;;1.10;;
20890;SDS011;10605;52.968;8.844;2023-03-14T06:40:23;3.45;;;1.60;;
20890;SDS011;10605;52.968;8.844;2023-03-14T06:42:49;4.32;;;1.70;;
20890;SDS011;10605;52.968;8.844;2023-03-14T06:45:15;5.22;;;1.58;;
20890;SDS011;10605;52.968;8.844;2023-03-14T06:47:41;5.38;;;2.05;;
20890;SDS011;10605;52.968;8.844;2023-03-14T06:50:06;4.72;;;2.00;;
20890;SDS011;10605;52.968;8.844;2023-03-14T06:52:33;4.38;;;2.13;;
20890;SDS011;10605;52.968;8.844;2023-03-14T06:54:59;6.85;;;2.88;;
20890;SDS011;10605;52.968;8.844;2023-03-14T06:57:24;7.45;;;2.55;;
20890;SDS011;10605;52.968;8.844;2023-03-14T06:59:50;7.40;;;2.50;;
20890;SDS011;10605;52.968;8.844;2023-03-14T07:02:16;5.72;;;2.22;;
20890;SDS011;10605;52.968;8.844;2023-03-14T07:04:41;6.63;;;2.70;;
20890;SDS011;10605;52.968;8.844;2023-03-14T07:07:07;9.32;;;2.58;;
20890;SDS011;10605;52.968;8.844;2023-03-14T07:09:33;5.43;;;2.63;;
20890;SDS011;10605;52.968;8.844;2023-03-14T07:11:59;9.85;;;2.75;;
20890;SDS011;10605;52.968;8.844;2023-03-14T07:14:25;11.45;;;3.40;;
20890;SDS011;10605;52.968;8.844;2023-03-14T07:16:51;12.45;;;2.92;;
20890;SDS011;10605;52.968;8.844;2023-03-14T07:19:16;14.60;;;2.65;;
20890;SDS011;10605;52.968;8.844;2023-03-14T07:21:42;12.40;;;3.60;;
20890;SDS011;10605;52.968;8.844;2023-03-14T07:24:08;12.20;;;2.75;;
20890;SDS011;10605;52.968;8.844;2023-03-14T07:26:33;7.50;;;2.85;;
20890;SDS011;10605;52.968;8.844;2023-03-14T07:28:59;12.27;;;4.00;;
20890;SDS011;10605;52.968;8.844;2023-03-14T07:31:28;6.45;;;2.70;;
20890;SDS011;10605;52.968;8.844;2023-03-14T07:33:54;8.70;;;3.50;;
20890;SDS011;10605;52.968;8.844;2023-03-14T07:36:20;7.50;;;3.13;;
20890;SDS011;10605;52.968;8.844;2023-03-14T07:38:46;9.15;;;3.15;;
20890;SDS011;10605;52.968;8.844;2023-03-14T07:41:13;9.57;;;3.88;;
20890;SDS011;10605;52.968;8.844;2023-03-14T07:43:39;11.63;;;3.38;;
20890;SDS011;10605;52.968;8.844;2023-03-14T07:46:07;10.82;;;3.28;;
20890;SDS011;10605;52.968;8.844;2023-03-14T07:48:33;11.45;;;3.50;;
20890;SDS011;10605;52.968;8.844;2023-03-14T07:50:59;7.30;;;3.88;;
20890;SDS011;10605;52.968;8.844;2023-03-14T07:53:25;10.93;;;4.65;;
20890;SDS011;10605;52.968;8.844;2023-03-14T07:55:51;7.78;;;3.80;;
20890;SDS011;10605;52.968;8.844;2023-03-14T07:58:18;6.43;;;3.72;;
20890;SDS011;10605;52.968;8.844;2023-03-14T08:00:44;5.18;;;3.92;;
20890;SDS011;10605;52.968;8.844;2023-03-14T08:03:09;6.30;;;4.22;;
20890;SDS011;10605;52.968;8.844;2023-03-14T08:05:36;7.78;;;5.70;;
20890;SDS011;10605;52.968;8.844;2023-03-14T08:08:02;9.18;;;4.40;;
20890;SDS011;10605;52.968;8.844;2023-03-14T08:10:29;6.45;;;4.10;;
20890;SDS011;10605;52.968;8.844;2023-03-14T08:12:55;10.90;;;4.20;;
20890;SDS011;10605;52.968;8.844;2023-03-14T08:15:22;9.07;;;4.95;;
20890;SDS011;10605;52.968;8.844;2023-03-14T08:17:50;7.22;;;4.45;;
20890;SDS011;10605;52.968;8.844;2023-03-14T08:20:23;10.57;;;4.88;;
20890;SDS011;10605;52.968;8.844;2023-03-14T08:22:50;12.20;;;7.03;;
20890;SDS011;10605;52.968;8.844;2023-03-14T08:25:17;26.85;;;13.30;;
20890;SDS011;10605;52.968;8.844;2023-03-14T08:27:43;60.75;;;30.90;;
20890;SDS011;10605;52.968;8.844;2023-03-14T08:30:10;40.42;;;18.33;;
20890;SDS011;10605;52.968;8.844;2023-03-14T08:32:38;68.75;;;31.02;;
20890;SDS011;10605;52.968;8.844;2023-03-14T08:35:04;7.43;;;4.13;;
20890;SDS011;10605;52.968;8.844;2023-03-14T08:37:31;10.80;;;3.35;;
20890;SDS011;10605;52.968;8.844;2023-03-14T08:39:57;5.05;;;2.38;;
20890;SDS011;10605;52.968;8.844;2023-03-14T08:42:22;7.93;;;2.70;;
20890;SDS011;10605;52.968;8.844;2023-03-14T08:44:48;6.50;;;2.53;;
20890;SDS011;10605;52.968;8.844;2023-03-14T08:47:15;6.97;;;2.10;;
20890;SDS011;10605;52.968;8.844;2023-03-14T08:49:40;7.82;;;1.98;;
20890;SDS011;10605;52.968;8.844;2023-03-14T08:52:06;5.32;;;1.70;;
20890;SDS011;10605;52.968;8.844;2023-03-14T08:54:32;5.55;;;2.05;;
20890;SDS011;10605;52.968;8.844;2023-03-14T08:56:58;6.20;;;1.77;;
20890;SDS011;10605;52.968;8.844;2023-03-14T08:59:23;4.00;;;2.08;;
20890;SDS011;10605;52.968;8.844;2023-03-14T09:01:49;6.72;;;1.92;;
20890;SDS011;10605;52.968;8.844;2023-03-14T09:04:15;5.05;;;1.02;;
20890;SDS011;10605;52.968;8.844;2023-03-14T09:06:41;2.78;;;1.10;;
20890;SDS011;10605;52.968;8.844;2023-03-14T09:09:07;2.83;;;1.08;;
20890;SDS011;10605;52.968;8.844;2023-03-14T09:11:33;2.00;;;1.35;;
20890;SDS011;10605;52.968;8.844;2023-03-14T09:13:59;2.10;;;1.05;;
20890;SDS011;10605;52.968;8.844;2023-03-14T09:16:25;4.10;;;1.05;;
20890;SDS011;10605;52.968;8.844;2023-03-14T09:18:53;2.38;;;0.93;;
20890;SDS011;10605;52.968;8.844;2023-03-14T09:21:20;2.35;;;0.93;;
20890;SDS011;10605;52.968;8.844;2023-03-14T09:23:46;2.50;;;1.00;;
20890;SDS011;10605;52.968;8.844;2023-03-14T09:26:12;3.63;;;1.60;;
20890;SDS011;10605;52.968;8.844;2023-03-14T09:28:38;1.58;;;0.95;;
20890;SDS011;10605;52.968;8.844;2023-03-14T09:31:10;0.63;;;0.32;;
20890;SDS011;10605;52.968;8.844;2023-03-14T09:33:36;2.53;;;0.50;;
20890;SDS011;10605;52.968;8.844;2023-03-14T09:36:03;1.90;;;0.63;;
20890;SDS011;10605;52.968;8.844;2023-03-14T09:38:29;3.80;;;0.82;;
20890;SDS011;10605;52.968;8.844;2023-03-14T09:40:55;3.10;;;0.57;;
20890;SDS011;10605;52.968;8.844;2023-03-14T09:43:23;2.78;;;0.70;;
20890;SDS011;10605;52.968;8.844;2023-03-14T09:45:50;0.93;;;0.50;;
20890;SDS011;10605;52.968;8.844;2023-03-14T09:48:20;2.58;;;0.73;;
20890;SDS011;10605;52.968;8.844;2023-03-14T09:50:50;5.38;;;0.63;;
20890;SDS011;10605;52.968;8.844;2023-03-14T09:53:27;2.40;;;0.70;;
20890;SDS011;10605;52.968;8.844;2023-03-14T09:56:01;2.45;;;0.60;;
20890;SDS011;10605;52.968;8.844;2023-03-14T09:58:27;1.83;;;1.38;;
20890;SDS011;10605;52.968;8.844;2023-03-14T10:00:55;1.80;;;1.65;;
20890;SDS011;10605;52.968;8.844;2023-03-14T10:05:50;2.30;;;0.77;;
20890;SDS011;10605;52.968;8.844;2023-03-14T10:08:16;1.30;;;0.43;;
20890;SDS011;10605;52.968;8.844;2023-03-14T10:10:42;2.47;;;0.63;;
20890;SDS011;10605;52.968;8.844;2023-03-14T10:15:47;3.03;;;0.80;;
20890;SDS011;10605;52.968;8.844;2023-03-14T10:18:17;0.82;;;0.82;;
20890;SDS011;10605;52.968;8.844;2023-03-14T10:20:44;5.88;;;0.90;;
20890;SDS011;10605;52.968;8.844;2023-03-14T10:25:45;0.60;;;0.60;;
20890;SDS011;10605;52.968;8.844;2023-03-14T10:28:24;0.60;;;0.40;;
20890;SDS011;10605;52.968;8.844;2023-03-14T10:30:53;0.93;;;0.50;;
20890;SDS011;10605;52.968;8.844;2023-03-14T10:38:22;0.60;;;0.52;;
20890;SDS011;10605;52.968;8.844;2023-03-14T10:40:51;0.50;;;0.50;;
20890;SDS011;10605;52.968;8.844;2023-03-14T10:43:19;1.73;;;0.82;;
20890;SDS011;10605;52.968;8.844;2023-03-14T10:45:55;0.75;;;0.70;;
20890;SDS011;10605;52.968;8.844;2023-03-14T10:53:29;1.13;;;1.00;;
20890;SDS011;10605;52.968;8.844;2023-03-14T10:56:20;0.80;;;0.80;;
20890;SDS011;10605;52.968;8.844;2023-03-14T10:58:48;2.50;;;0.98;;
20890;SDS011;10605;52.968;8.844;2023-03-14T11:03:51;3.22;;;1.10;;
20890;SDS011;10605;52.968;8.844;2023-03-14T11:11:45;1.67;;;0.98;;
20890;SDS011;10605;52.968;8.844;2023-03-14T11:25:44;5.20;;;1.17;;
20890;SDS011;10605;52.968;8.844;2023-03-14T11:28:29;3.60;;;1.40;;
20890;SDS011;10605;52.968;8.844;2023-03-14T11:34:34;1.98;;;1.77;;
20890;SDS011;10605;52.968;8.844;2023-03-14T11:37:12;8.55;;;1.70;;
20890;SDS011;10605;52.968;8.844;2023-03-14T11:39:48;4.72;;;1.40;;
20890;SDS011;10605;52.968;8.844;2023-03-14T11:42:24;5.05;;;1.83;;
20890;SDS011;10605;52.968;8.844;2023-03-14T11:44:53;7.00;;;1.80;;
20890;SDS011;10605;52.968;8.844;2023-03-14T11:47:28;5.05;;;1.40;;
20890;SDS011;10605;52.968;8.844;2023-03-14T11:52:47;5.05;;;1.83;;
20890;SDS011;10605;52.968;8.844;2023-03-14T11:55:21;7.20;;;1.63;;
20890;SDS011;10605;52.968;8.844;2023-03-14T11:57:55;7.85;;;2.00;;
20890;SDS011;10605;52.968;8.844;2023-03-14T12:00:25;7.35;;;1.55;;
20890;SDS011;10605;52.968;8.844;2023-03-14T12:08:54;8.27;;;1.88;;
20890;SDS011;10605;52.968;8.844;2023-03-14T12:14:00;7.45;;;1.73;;
20890;SDS011;10605;52.968;8.844;2023-03-14T12:16:30;9.80;;;2.05;;
20890;SDS011;10605;52.968;8.844;2023-03-14T12:21:55;11.50;;;1.85;;
20890;SDS011;10605;52.968;8.844;2023-03-14T12:24:27;10.98;;;2.15;;
20890;SDS011;10605;52.968;8.844;2023-03-14T12:26:56;12.63;;;2.13;;
20890;SDS011;10605;52.968;8.844;2023-03-14T12:29:24;14.35;;;2.03;;
20890;SDS011;10605;52.968;8.844;2023-03-14T12:34:34;12.55;;;2.10;;
20890;SDS011;10605;52.968;8.844;2023-03-14T12:40:21;18.40;;;2.53;;
20890;SDS011;10605;52.968;8.844;2023-03-14T12:42:59;12.88;;;2.67;;
20890;SDS011;10605;52.968;8.844;2023-03-14T12:45:31;23.25;;;3.20;;
20890;SDS011;10605;52.968;8.844;2023-03-14T12:51:01;16.75;;;2.38;;
20890;SDS011;10605;52.968;8.844;2023-03-14T12:54:12;17.00;;;2.95;;
20890;SDS011;10605;52.968;8.844;2023-03-14T12:59:34;14.15;;;2.30;;
20890;SDS011;10605;52.968;8.844;2023-03-14T13:02:19;14.10;;;2.28;;
20890;SDS011;10605;52.968;8.844;2023-03-14T13:04:53;16.15;;;2.30;;
20890;SDS011;10605;52.968;8.844;2023-03-14T13:15:22;7.03;;;1.52;;
20890;SDS011;10605;52.968;8.844;2023-03-14T13:17:55;9.75;;;2.67;;
20890;SDS011;10605;52.968;8.844;2023-03-14T13:20:39;8.68;;;1.77;;
20890;SDS011;10605;52.968;8.844;2023-03-14T13:23:26;9.77;;;1.55;;
20890;SDS011;10605;52.968;8.844;2023-03-14T13:26:02;5.97;;;1.40;;
20890;SDS011;10605;52.968;8.844;2023-03-14T13:29:51;12.07;;;2.15;;
20890;SDS011;10605;52.968;8.844;2023-03-14T13:32:54;13.00;;;2.10;;
20890;SDS011;10605;52.968;8.844;2023-03-14T13:35:22;8.80;;;1.75;;
20890;SDS011;10605;52.968;8.844;2023-03-14T13:37:58;17.05;;;2.17;;
20890;SDS011;10605;52.968;8.844;2023-03-14T13:40:34;17.75;;;2.00;;
20890;SDS011;10605;52.968;8.844;2023-03-14T13:43:04;8.20;;;1.75;;
20890;SDS011;10605;52.968;8.844;2023-03-14T13:45:51;7.72;;;1.92;;
20890;SDS011;10605;52.968;8.844;2023-03-14T13:48:22;11.60;;;1.75;;
20890;SDS011;10605;52.968;8.844;2023-03-14T13:50:53;7.65;;;1.50;;
20890;SDS011;10605;52.968;8.844;2023-03-14T13:53:29;14.10;;;2.15;;
20890;SDS011;10605;52.968;8.844;2023-03-14T13:55:56;7.15;;;1.50;;
20890;SDS011;10605;52.968;8.844;2023-03-14T13:58:29;10.48;;;2.45;;
20890;SDS011;10605;52.968;8.844;2023-03-14T14:03:26;14.02;;;1.92;;
20890;SDS011;10605;52.968;8.844;2023-03-14T14:05:54;9.65;;;1.65;;
20890;SDS011;10605;52.968;8.844;2023-03-14T14:08:22;3.35;;;1.40;;
20890;SDS011;10605;52.968;8.844;2023-03-14T14:10:48;7.00;;;1.60;;
20890;SDS011;10605;52.968;8.844;2023-03-14T14:13:17;6.95;;;1.40;;
20890;SDS011;10605;52.968;8.844;2023-03-14T14:15:46;8.00;;;1.83;;
20890;SDS011;10605;52.968;8.844;2023-03-14T14:18:16;6.53;;;1.60;;
20890;SDS011;10605;52.968;8.844;2023-03-14T14:20:46;4.85;;;1.45;;
20890;SDS011;10605;52.968;8.844;2023-03-14T14:23:14;12.90;;;1.33;;
20890;SDS011;10605;52.968;8.844;2023-03-14T14:25:44;4.47;;;1.50;;
20890;SDS011;10605;52.968;8.844;2023-03-14T14:28:44;12.40;;;1.65;;
20890;SDS011;10605;52.968;8.844;2023-03-14T14:31:22;5.88;;;1.45;;
20890;SDS011;10605;52.968;8.844;2023-03-14T14:33:59;12.68;;;1.98;;
20890;SDS011;10605;52.968;8.844;2023-03-14T14:36:32;10.50;;;1.65;;
20890;SDS011;10605;52.968;8.844;2023-03-14T14:39:17;9.80;;;2.15;;
20890;SDS011;10605;52.968;8.844;2023-03-14T14:41:49;5.57;;;1.98;;
20890;SDS011;10605;52.968;8.844;2023-03-14T14:44:21;10.50;;;1.63;;
20890;SDS011;10605;52.968;8.844;2023-03-14T14:46:55;12.20;;;1.63;;
20890;SDS011;10605;52.968;8.844;2023-03-14T14:49:22;10.38;;;1.95;;
20890;SDS011;10605;52.968;8.844;2023-03-14T14:52:00;12.43;;;1.95;;
20890;SDS011;10605;52.968;8.844;2023-03-14T14:54:38;13.27;;;2.20;;
20890;SDS011;10605;52.968;8.844;2023-03-14T14:57:18;7.95;;;1.70;;
20890;SDS011;10605;52.968;8.844;2023-03-14T14:59:47;9.10;;;1.85;;
20890;SDS011;10605;52.968;8.844;2023-03-14T15:02:36;12.30;;;1.80;;
20890;SDS011;10605;52.968;8.844;2023-03-14T15:05:05;13.00;;;2.45;;
20890;SDS011;10605;52.968;8.844;2023-03-14T15:07:36;9.73;;;1.95;;
20890;SDS011;10605;52.968;8.844;2023-03-14T15:10:02;15.27;;;1.83;;
20890;SDS011;10605;52.968;8.844;2023-03-14T15:12:28;14.30;;;2.00;;
20890;SDS011;10605;52.968;8.844;2023-03-14T15:14:53;14.30;;;2.67;;
20890;SDS011;10605;52.968;8.844;2023-03-14T15:17:22;9.65;;;2.03;;
20890;SDS011;10605;52.968;8.844;2023-03-14T15:19:48;8.65;;;1.80;;
20890;SDS011;10605;52.968;8.844;2023-03-14T15:22:14;8.95;;;1.90;;
20890;SDS011;10605;52.968;8.844;2023-03-14T15:24:40;11.27;;;1.60;;
20890;SDS011;10605;52.968;8.844;2023-03-14T15:27:10;6.80;;;1.50;;
20890;SDS011;10605;52.968;8.844;2023-03-14T15:29:39;7.05;;;1.42;;
20890;SDS011;10605;52.968;8.844;2023-03-14T15:32:05;10.88;;;1.98;;
20890;SDS011;10605;52.968;8.844;2023-03-14T15:34:31;6.15;;;1.35;;
20890;SDS011;10605;52.968;8.844;2023-03-14T15:36:57;28.58;;;2.80;;
20890;SDS011;10605;52.968;8.844;2023-03-14T15:39:30;6.28;;;1.45;;
20890;SDS011;10605;52.968;8.844;2023-03-14T15:41:56;6.85;;;1.75;;
20890;SDS011;10605;52.968;8.844;2023-03-14T15:44:21;5.75;;;1.85;;
20890;SDS011;10605;52.968;8.844;2023-03-14T15:46:47;6.45;;;1.67;;
20890;SDS011;10605;52.968;8.844;2023-03-14T15:49:13;10.57;;;1.90;;
20890;SDS011;10605;52.968;8.844;2023-03-14T15:51:38;8.20;;;2.17;;
20890;SDS011;10605;52.968;8.844;2023-03-14T15:54:06;11.23;;;1.98;;
20890;SDS011;10605;52.968;8.844;2023-03-14T15:56:32;5.05;;;1.55;;
20890;SDS011;10605;52.968;8.844;2023-03-14T15:58:58;11.32;;;2.10;;
20890;SDS011;10605;52.968;8.844;2023-03-14T16:01:23;13.27;;;3.05;;
20890;SDS011;10605;52.968;8.844;2023-03-14T16:03:51;12.52;;;2.15;;
20890;SDS011;10605;52.968;8.844;2023-03-14T16:06:18;9.38;;;1.75;;
20890;SDS011;10605;52.968;8.844;2023-03-14T16:08:47;12.70;;;2.25;;
20890;SDS011;10605;52.968;8.844;2023-03-14T16:11:13;11.98;;;3.08;;
20890;SDS011;10605;52.968;8.844;2023-03-14T16:13:41;12.95;;;3.15;;
20890;SDS011;10605;52.968;8.844;2023-03-14T16:16:07;16.40;;;2.95;;
20890;SDS011;10605;52.968;8.844;2023-03-14T16:18:34;14.32;;;2.22;;
20890;SDS011;10605;52.968;8.844;2023-03-14T16:21:03;7.68;;;2.88;;